TimeEDT,TemperatureF,Dew PointF,Humidity,Sea Level PressureIn,VisibilityMPH,Wind Direction,Wind SpeedMPH,Gust SpeedMPH,PrecipitationIn,Events,Conditions,WindDirDegrees,DateUTC
12:54 AM,52.0,50.0,93,30.01,10.0,Calm,Calm,-,N/A,,Partly Cloudy,0,2009-10-23 04:54:00
1:54 AM,53.1,51.1,93,29.99,10.0,Calm,Calm,-,N/A,,Mostly Cloudy,0,2009-10-23 05:54:00
2:54 AM,54.0,52.0,93,29.96,10.0,SE,3.5,-,N/A,,Overcast,140,2009-10-23 06:54:00
3:05 AM,55.4,51.8,88,30.01,10.0,SSE,3.5,-,N/A,,Overcast,160,2009-10-23 07:05:00
3:54 AM,55.9,54.0,93,29.96,10.0,Calm,Calm,-,N/A,,Overcast,0,2009-10-23 07:54:00
4:54 AM,57.0,55.0,93,29.94,10.0,Calm,Calm,-,N/A,,Mostly Cloudy,0,2009-10-23 08:54:00
5:54 AM,57.0,55.0,93,29.95,10.0,Calm,Calm,-,N/A,,Overcast,0,2009-10-23 09:54:00
6:54 AM,62.1,57.0,84,29.94,10.0,SSE,9.2,-,N/A,,Overcast,160,2009-10-23 10:54:00
7:39 AM,62.6,57.2,82,29.98,10.0,SSE,8.1,-,N/A,,Overcast,150,2009-10-23 11:39:00
7:54 AM,62.1,57.0,84,29.93,10.0,SSE,6.9,-,N/A,,Overcast,150,2009-10-23 11:54:00
8:54 AM,63.0,59.0,87,29.93,10.0,SSE,12.7,18.4,0.00,,Overcast,160,2009-10-23 12:54:00
9:54 AM,63.0,60.1,90,29.93,10.0,SSE,10.4,-,0.01,,Overcast,160,2009-10-23 13:54:00
10:54 AM,64.9,60.1,84,29.91,10.0,South,17.3,-,N/A,,Overcast,170,2009-10-23 14:54:00
11:54 AM,64.0,61.0,90,29.90,9.0,South,12.7,-,0.00,Rain,Light Rain,190,2009-10-23 15:54:00
12:43 PM,62.6,62.6,100,29.92,4.0,South,12.7,-,0.04,Rain,Light Rain,180,2009-10-23 16:43:00
12:54 PM,64.0,62.1,93,29.88,10.0,South,12.7,-,0.04,Rain,Light Rain,180,2009-10-23 16:54:00
12:56 PM,64.4,62.6,94,29.92,10.0,South,13.8,-,0.00,Rain,Light Rain,180,2009-10-23 16:56:00
1:54 PM,64.0,62.1,93,29.86,2.0,South,13.8,20.7,0.02,Rain,Rain,180,2009-10-23 17:54:00
2:01 PM,64.4,62.6,94,29.90,2.5,South,11.5,20.7,0.02,Rain,Rain,170,2009-10-23 18:01:00
2:10 PM,62.6,62.6,100,29.90,6.0,SSE,8.1,-,0.03,Rain,Light Rain,160,2009-10-23 18:10:00
2:16 PM,64.4,62.6,94,29.89,2.5,South,11.5,-,0.03,,Overcast,170,2009-10-23 18:16:00
2:26 PM,64.4,62.6,94,29.89,2.5,South,11.5,-,0.03,,Overcast,180,2009-10-23 18:26:00
2:54 PM,64.0,61.0,90,29.84,2.5,SSE,9.2,-,0.05,Rain,Light Rain,160,2009-10-23 18:54:00
3:01 PM,64.4,60.8,88,29.88,7.0,SSE,10.4,18.4,0.00,Rain,Light Rain,160,2009-10-23 19:01:00
3:15 PM,64.4,62.6,94,29.87,7.0,SSE,8.1,-,0.00,Rain,Light Rain,150,2009-10-23 19:15:00
3:28 PM,64.4,62.6,94,29.85,2.5,SE,6.9,-,0.01,Rain,Light Rain,140,2009-10-23 19:28:00
3:54 PM,64.0,63.0,96,29.82,2.5,SSE,8.1,-,0.05,Rain,Rain,160,2009-10-23 19:54:00
4:05 PM,64.4,62.6,94,29.86,6.0,SE,4.6,-,0.01,Rain,Light Rain,140,2009-10-23 20:05:00
4:54 PM,64.9,63.0,93,29.81,2.5,SSE,8.1,-,0.08,Rain,Light Rain,160,2009-10-23 20:54:00
5:01 PM,64.4,62.6,94,29.85,5.0,SSE,6.9,-,0.01,Rain,Light Rain,160,2009-10-23 21:01:00
5:54 PM,64.9,63.0,93,29.79,9.0,SE,6.9,-,0.05,Rain,Light Rain,130,2009-10-23 21:54:00
6:10 PM,64.4,64.4,100,29.83,2.5,SE,5.8,-,0.00,Rain,Light Rain,130,2009-10-23 22:10:00
6:17 PM,64.4,64.4,100,29.83,2.5,SE,5.8,-,0.00,Rain,Light Rain,130,2009-10-23 22:17:00
6:31 PM,64.4,64.4,100,29.83,2.5,SE,5.8,-,0.00,Rain,Light Rain,130,2009-10-23 22:31:00
6:54 PM,64.9,64.0,97,29.78,2.5,Variable,4.6,-,0.00,Rain,Light Rain,0,2009-10-23 22:54:00
7:09 PM,64.4,64.4,100,29.84,2.5,SSE,6.9,-,0.01,Rain,Light Rain,150,2009-10-23 23:09:00
7:17 PM,64.4,64.4,100,29.84,2.5,Variable,4.6,-,0.04,Rain,Heavy Rain,0,2009-10-23 23:17:00
7:27 PM,64.4,64.4,100,29.84,2.5,Calm,Calm,-,0.10,Rain,Heavy Rain,0,2009-10-23 23:27:00
7:54 PM,64.9,64.0,97,29.78,2.5,SE,3.5,-,0.19,Rain,Heavy Rain,130,2009-10-23 23:54:00
8:54 PM,64.0,64.0,100,29.78,2.5,SE,4.6,-,0.32,Rain,Light Rain,130,2009-10-24 00:54:00
9:01 PM,64.4,64.4,100,29.83,10.0,Calm,Calm,-,0.00,Rain,Light Rain,0,2009-10-24 01:01:00
9:31 PM,66.2,64.4,94,29.83,10.0,SSE,4.6,-,0.00,Rain,Light Rain,160,2009-10-24 01:31:00
9:54 PM,66.0,64.0,93,29.77,10.0,SE,5.8,-,0.00,,Overcast,130,2009-10-24 01:54:00
10:54 PM,66.0,64.9,96,29.76,3.0,SSE,9.2,-,0.09,Rain,Heavy Rain,150,2009-10-24 02:54:00
11:06 PM,66.2,64.4,94,29.82,8.0,SSE,5.8,-,0.02,Rain,Light Rain,160,2009-10-24 03:06:00
11:54 PM,66.0,64.9,96,29.75,10.0,SSE,3.5,-,0.05,Rain,Light Rain,160,2009-10-24 03:54:00